Time;durP1;ratioP1;P1;durP2;ratioP2;P2;SDS_P1;SDS_P2;PMS_P1;PMS_P2;Temp;Humidity;BMP_temperature;BMP_pressure;BME280_temperature;BME280_humidity;BME280_pressure;Samples;Min_cycle;Max_cycle;Signal;HPM_P1;HPM_P2
2021/06/22 00:02:14;;;;;;;8.85;4.25;;;;;;;16.16;68.47;100848.81;5069030;28;20039;-87
2021/06/22 00:04:40;;;;;;;8.43;4.75;;;;;;;16.22;68.78;100840.31;5070942;28;20029;-86
2021/06/22 00:07:05;;;;;;;7.18;5.07;;;;;;;16.39;68.59;100838.03;5075037;28;20032;-86
2021/06/22 00:09:30;;;;;;;5.13;4.63;;;;;;;16.36;68.52;100833.03;5074256;28;20106;-86
2021/06/22 00:11:56;;;;;;;11.15;5.38;;;;;;;16.30;69.00;100836.19;5075147;28;20482;-86
2021/06/22 00:14:21;;;;;;;10.45;5.10;;;;;;;16.04;70.60;100834.78;5073279;28;20052;-86
2021/06/22 00:16:46;;;;;;;9.30;5.22;;;;;;;16.23;69.46;100833.22;5075130;28;20032;-86
2021/06/22 00:19:13;;;;;;;7.55;4.32;;;;;;;16.28;68.30;100836.31;5074276;28;20371;-86
2021/06/22 00:21:39;;;;;;;7.90;4.65;;;;;;;16.29;68.33;100838.00;5074846;28;20285;-86
2021/06/22 00:24:05;;;;;;;10.93;5.20;;;;;;;16.33;67.97;100846.53;5073723;28;20309;-86
2021/06/22 00:26:30;;;;;;;7.50;5.47;;;;;;;16.25;68.90;100841.88;5073150;28;20445;-86
2021/06/22 00:28:55;;;;;;;9.77;5.15;;;;;;;16.21;68.51;100841.31;5074601;28;20021;-86
2021/06/22 00:31:21;;;;;;;11.55;6.15;;;;;;;16.29;67.96;100842.44;5072840;28;20024;-86
2021/06/22 00:33:46;;;;;;;8.30;6.32;;;;;;;16.29;67.15;100842.44;5073784;28;20040;-86
2021/06/22 00:36:12;;;;;;;8.48;5.85;;;;;;;16.23;67.36;100843.81;5073768;28;20454;-86
2021/06/22 00:38:38;;;;;;;10.77;6.38;;;;;;;16.21;68.12;100841.31;5074639;28;20035;-86
2021/06/22 00:41:03;;;;;;;9.07;5.68;;;;;;;16.14;68.64;100858.69;5073639;28;20078;-86
2021/06/22 00:43:29;;;;;;;9.15;6.32;;;;;;;16.23;68.81;100846.47;5073315;28;20035;-86
2021/06/22 00:45:54;;;;;;;13.00;7.40;;;;;;;16.05;69.77;100856.81;5074596;28;20028;-86
2021/06/22 00:48:19;;;;;;;12.40;6.70;;;;;;;16.07;69.03;100860.16;5073708;28;20028;-86
2021/06/22 00:50:45;;;;;;;9.68;6.60;;;;;;;16.15;68.57;100851.56;5074417;28;20103;-86
2021/06/22 00:53:10;;;;;;;13.32;7.72;;;;;;;16.14;67.94;100857.84;5072632;28;20048;-86
2021/06/22 00:55:36;;;;;;;10.65;7.50;;;;;;;16.15;68.01;100862.16;5072409;28;20047;-86
2021/06/22 00:58:05;;;;;;;12.55;7.78;;;;;;;16.12;68.45;100865.09;5072761;28;20543;-86
2021/06/22 01:00:31;;;;;;;13.68;8.05;;;;;;;16.15;68.35;100863.03;5056931;28;20056;-86
2021/06/22 01:02:58;;;;;;;13.35;7.50;;;;;;;16.13;67.67;100858.81;5073957;28;20020;-86
2021/06/22 01:05:24;;;;;;;11.95;7.35;;;;;;;16.00;69.14;100864.31;5073312;28;20389;-86
2021/06/22 01:07:55;;;;;;;10.30;6.70;;;;;;;16.09;68.65;100863.53;5073213;28;20023;-86
2021/06/22 01:10:22;;;;;;;10.00;8.03;;;;;;;16.08;68.74;100863.66;5074100;28;20024;-86
2021/06/22 01:12:49;;;;;;;15.02;7.53;;;;;;;16.08;68.97;100871.63;5073834;28;20039;-86
2021/06/22 01:15:17;;;;;;;16.88;8.27;;;;;;;15.89;69.89;100867.84;5074754;28;20024;-86
2021/06/22 01:17:43;;;;;;;15.02;8.05;;;;;;;15.96;68.69;100862.88;5072796;28;20028;-86
2021/06/22 01:20:10;;;;;;;11.10;7.55;;;;;;;15.98;69.18;100876.84;5074214;28;20351;-86
2021/06/22 01:22:41;;;;;;;10.05;7.45;;;;;;;16.03;69.13;100870.19;5073237;28;20024;-86
2021/06/22 01:25:06;;;;;;;15.73;8.65;;;;;;;15.80;68.96;100874.75;5073710;28;20029;-86
2021/06/22 01:27:32;;;;;;;10.93;7.40;;;;;;;15.83;68.01;100873.66;5074511;28;20478;-86
2021/06/22 01:30:01;;;;;;;11.30;7.00;;;;;;;15.88;68.49;100876.75;5073638;28;20027;-86
2021/06/22 01:32:27;;;;;;;10.25;7.10;;;;;;;15.85;69.05;100875.19;5073091;28;20060;-86
2021/06/22 01:34:55;;;;;;;9.43;7.43;;;;;;;15.86;68.45;100879.53;5072603;28;20131;-86
2021/06/22 01:37:21;;;;;;;13.68;7.88;;;;;;;15.82;68.67;100883.41;5073868;28;20032;-86
2021/06/22 01:39:46;;;;;;;10.05;7.97;;;;;;;15.86;69.13;100878.69;5072953;28;20024;-86
2021/06/22 01:42:11;;;;;;;14.27;7.95;;;;;;;15.95;68.92;100874.44;5072782;28;20132;-86
2021/06/22 01:44:37;;;;;;;10.82;7.00;;;;;;;15.91;69.21;100873.84;5073334;28;20036;-86
2021/06/22 01:47:04;;;;;;;13.88;8.80;;;;;;;15.47;70.71;100857.97;5074359;28;20028;-86
2021/06/22 01:49:31;;;;;;;14.80;7.72;;;;;;;15.82;70.17;100872.81;5072796;28;20029;-86
2021/06/22 01:51:57;;;;;;;13.43;7.57;;;;;;;15.91;69.86;100870.38;5073743;28;20036;-86
2021/06/22 01:54:22;;;;;;;14.75;8.23;;;;;;;15.81;70.03;100871.13;5071435;28;20033;-86
2021/06/22 01:56:50;;;;;;;10.07;8.20;;;;;;;15.77;70.83;100888.22;5072506;28;20032;-86
2021/06/22 01:59:15;;;;;;;8.30;6.85;;;;;;;15.85;70.90;100875.19;5072661;28;20028;-86
2021/06/22 02:01:42;;;;;;;17.90;8.38;;;;;;;15.90;70.73;100885.41;5072646;28;20060;-85
2021/06/22 02:04:08;;;;;;;15.20;8.45;;;;;;;15.82;70.59;100883.41;5073574;28;20036;-86
2021/06/22 02:06:34;;;;;;;12.25;8.52;;;;;;;15.79;71.28;100890.75;5072015;28;20070;-86
2021/06/22 02:09:00;;;;;;;11.45;7.70;;;;;;;15.70;71.32;100881.75;5073791;28;20417;-86
2021/06/22 02:11:25;;;;;;;14.10;9.30;;;;;;;15.34;73.66;100873.16;5072514;28;20039;-86
2021/06/22 02:13:51;;;;;;;10.95;8.82;;;;;;;15.59;73.20;100895.00;5072238;28;20040;-86
2021/06/22 02:16:17;;;;;;;13.80;8.30;;;;;;;15.65;71.96;100887.38;5073041;28;20032;-87
2021/06/22 02:18:43;;;;;;;14.95;9.05;;;;;;;15.65;73.28;100894.50;5072320;28;20463;-86
2021/06/22 02:21:09;;;;;;;14.13;8.85;;;;;;;15.69;72.25;100897.75;5073295;28;20112;-86
2021/06/22 02:23:35;;;;;;;16.85;8.90;;;;;;;15.50;73.49;100893.09;5070223;28;20120;-86
2021/06/22 02:26:02;;;;;;;12.45;8.52;;;;;;;15.32;74.24;100887.47;5071128;28;20032;-86
2021/06/22 02:28:27;;;;;;;14.02;8.38;;;;;;;15.50;74.20;100885.16;5071017;28;20108;-85
2021/06/22 02:30:55;;;;;;;14.38;8.07;;;;;;;15.51;72.61;100897.44;5070929;28;20128;-86
2021/06/22 02:33:21;;;;;;;12.85;8.63;;;;;;;15.45;73.34;100896.13;5072905;28;20024;-86
2021/06/22 02:35:47;;;;;;;14.02;8.25;;;;;;;15.49;73.48;100894.06;5072177;28;20073;-86
2021/06/22 02:38:13;;;;;;;13.52;10.00;;;;;;;15.49;73.83;100891.44;5073153;28;20020;-86
2021/06/22 02:40:39;;;;;;;18.52;9.95;;;;;;;15.20;75.14;100892.78;5071111;28;20029;-86
2021/06/22 02:43:05;;;;;;;17.92;9.38;;;;;;;15.22;74.88;100890.84;5068598;28;20435;-86
2021/06/22 02:45:30;;;;;;;15.50;9.20;;;;;;;15.24;75.02;100906.59;5070038;28;20020;-85
2021/06/22 02:47:56;;;;;;;14.02;9.75;;;;;;;15.30;75.06;100906.13;5072636;28;20382;-85
2021/06/22 02:50:22;;;;;;;12.70;9.85;;;;;;;15.33;75.30;100897.13;5071760;28;20032;-85
2021/06/22 02:52:47;;;;;;;14.75;8.65;;;;;;;15.44;74.12;100910.31;5071708;28;20029;-85
2021/06/22 02:55:20;;;;;;;15.43;9.15;;;;;;;15.25;75.23;100911.78;5071300;28;20113;-86
2021/06/22 02:57:50;;;;;;;13.90;8.68;;;;;;;15.42;74.21;100904.28;5072981;28;20505;-86
2021/06/22 03:00:18;;;;;;;13.07;9.07;;;;;;;15.43;74.22;100909.47;5070560;28;20500;-86
2021/06/22 03:02:44;;;;;;;14.93;8.35;;;;;;;15.37;74.56;100904.66;5069916;28;20029;-86
2021/06/22 03:05:10;;;;;;;17.63;9.40;;;;;;;15.26;75.76;100908.19;5071748;28;20112;-85
2021/06/22 03:07:36;;;;;;;11.02;9.57;;;;;;;15.31;74.01;100907.81;5071222;28;20454;-85
2021/06/22 03:10:08;;;;;;;12.32;8.75;;;;;;;15.33;75.12;100907.69;5070831;28;20032;-86
2021/06/22 03:12:34;;;;;;;;;;;;;;;15.29;75.58;100901.81;5071955;28;20033;-85
2021/06/22 03:14:59;;;;;;;10.27;7.97;;;;;;;15.28;74.28;100913.34;5072427;28;19916;-86
2021/06/22 03:17:24;;;;;;;12.20;7.38;;;;;;;15.39;74.03;100918.63;5070711;28;20742;-85
2021/06/22 03:19:51;;;;;;;13.50;8.52;;;;;;;15.29;74.27;100917.69;5072371;28;20084;-85
2021/06/22 03:22:16;;;;;;;13.15;8.15;;;;;;;15.27;73.96;100919.59;5070352;28;20063;-86
2021/06/22 03:24:41;;;;;;;11.05;8.38;;;;;;;15.24;74.61;100925.13;5071314;28;20120;-85
2021/06/22 03:27:07;;;;;;;16.13;8.60;;;;;;;15.05;75.66;100918.66;5070519;28;20032;-86
2021/06/22 03:29:32;;;;;;;15.63;8.48;;;;;;;15.13;75.20;100917.22;5071910;28;20042;-86
2021/06/22 03:31:58;;;;;;;10.52;8.68;;;;;;;15.15;76.08;100929.34;5072029;28;20031;-86
2021/06/22 03:34:23;;;;;;;15.27;8.43;;;;;;;15.20;75.76;100929.81;5071357;28;20081;-85
2021/06/22 03:36:48;;;;;;;15.38;8.63;;;;;;;15.10;76.45;100928.03;5071896;28;20470;-85
2021/06/22 03:39:14;;;;;;;12.30;8.05;;;;;;;15.18;75.81;100936.19;5072134;28;20067;-86
2021/06/22 03:41:39;;;;;;;13.18;8.63;;;;;;;14.94;77.67;100931.88;5076162;28;20090;-85
2021/06/22 03:44:05;;;;;;;13.63;9.13;;;;;;;14.96;77.04;100935.22;5075349;28;20378;-86
2021/06/22 03:46:31;;;;;;;13.18;8.45;;;;;;;14.90;77.38;100940.16;5075378;28;20482;-86
2021/06/22 03:48:56;;;;;;;13.60;8.35;;;;;;;15.01;76.74;100933.09;5075180;28;20041;-86
2021/06/22 03:51:22;;;;;;;14.38;8.85;;;;;;;14.86;78.01;100944.84;5075951;28;20025;-86
2021/06/22 03:53:48;;;;;;;12.00;8.38;;;;;;;14.96;76.86;100945.81;5073082;28;20029;-85
2021/06/22 03:56:14;;;;;;;13.57;7.57;;;;;;;14.86;77.48;100947.50;5074693;28;20479;-86
2021/06/22 03:58:39;;;;;;;14.00;7.50;;;;;;;14.92;76.66;100943.53;5072503;28;20039;-86
2021/06/22 04:01:05;;;;;;;10.57;7.43;;;;;;;14.86;77.38;100948.31;5074572;28;20032;-86
2021/06/22 04:03:30;;;;;;;13.60;7.85;;;;;;;14.85;77.80;100943.19;5075659;28;20028;-86
2021/06/22 04:05:56;;;;;;;11.88;6.97;;;;;;;14.89;77.04;100955.19;5074488;28;20031;-86
2021/06/22 04:08:21;;;;;;;13.43;7.90;;;;;;;14.72;77.94;100945.09;5074506;28;20540;-86
2021/06/22 04:10:47;;;;;;;16.15;8.20;;;;;;;14.73;78.53;100957.31;5075205;28;20158;-86
2021/06/22 04:13:12;;;;;;;14.07;7.53;;;;;;;14.72;77.24;100945.91;5074091;28;20187;-85
2021/06/22 04:15:38;;;;;;;9.93;6.32;;;;;;;14.68;77.16;100957.69;5075460;28;20032;-85
2021/06/22 04:18:05;;;;;;;15.77;7.57;;;;;;;14.67;77.25;100954.19;5074300;28;20024;-86
2021/06/22 04:20:31;;;;;;;9.40;6.32;;;;;;;14.82;75.17;100960.09;5075177;28;20036;-85
2021/06/22 04:22:57;;;;;;;9.40;6.90;;;;;;;14.71;75.44;100960.09;5073241;28;20490;-85
2021/06/22 04:25:23;;;;;;;15.95;9.30;;;;;;;14.66;77.21;100968.38;5074436;28;20085;-85
2021/06/22 04:27:48;;;;;;;12.25;7.07;;;;;;;14.71;77.25;100967.16;5074836;28;20024;-85
2021/06/22 04:30:13;;;;;;;12.00;6.75;;;;;;;14.67;76.77;100962.13;5074504;28;20028;-85
2021/06/22 04:32:39;;;;;;;14.43;7.47;;;;;;;14.68;77.10;100963.81;5074204;28;20501;-86
2021/06/22 04:35:05;;;;;;;11.70;6.70;;;;;;;14.67;76.57;100964.78;5074877;28;20086;-85
2021/06/22 04:37:30;;;;;;;18.95;7.65;;;;;;;14.59;76.10;100967.16;5074058;28;20375;-85
2021/06/22 04:39:55;;;;;;;12.98;7.13;;;;;;;14.60;76.67;100973.28;5074658;28;20048;-85
2021/06/22 04:42:21;;;;;;;11.68;6.47;;;;;;;14.76;76.12;100979.06;5073728;28;20023;-85
2021/06/22 04:44:47;;;;;;;10.52;7.57;;;;;;;14.72;75.79;100982.09;5074666;28;20465;-86
2021/06/22 04:47:13;;;;;;;12.40;8.48;;;;;;;14.68;75.31;100963.81;5073725;28;20056;-85
2021/06/22 04:49:38;;;;;;;13.07;7.75;;;;;;;14.59;76.30;100972.44;5061720;28;20606;-86
2021/06/22 04:52:04;;;;;;;17.23;8.35;;;;;;;14.64;75.67;100975.56;5072966;28;20367;-85
2021/06/22 04:54:29;;;;;;;12.20;7.22;;;;;;;14.65;75.23;100971.97;5072405;28;20036;-85
2021/06/22 04:56:54;;;;;;;9.90;7.03;;;;;;;14.48;77.41;100969.75;5073965;28;20052;-85
2021/06/22 04:59:20;;;;;;;13.23;8.25;;;;;;;14.58;76.59;100973.41;5073014;28;20470;-86
2021/06/22 05:01:45;;;;;;;11.38;8.40;;;;;;;14.66;76.63;100967.53;5073534;28;20111;-85
2021/06/22 05:04:12;;;;;;;14.50;8.38;;;;;;;14.53;77.04;100978.16;5074326;28;20535;-85
2021/06/22 05:06:38;;;;;;;12.05;7.95;;;;;;;14.60;76.93;100968.84;5061477;28;20077;-85
2021/06/22 05:09:03;;;;;;;13.40;8.77;;;;;;;14.66;77.89;100973.66;5068699;28;20032;-85
2021/06/22 05:11:29;;;;;;;12.25;8.50;;;;;;;14.71;77.56;100978.59;5062423;28;20025;-85
2021/06/22 05:13:56;;;;;;;13.40;8.13;;;;;;;14.73;77.83;100973.19;5054277;28;20078;-85
2021/06/22 05:16:22;;;;;;;15.98;8.85;;;;;;;14.63;77.97;100973.91;5062880;28;20067;-86
2021/06/22 05:18:48;;;;;;;11.25;8.02;;;;;;;14.64;76.81;100969.44;5073505;28;20036;-85
2021/06/22 05:21:13;;;;;;;12.00;7.93;;;;;;;14.71;77.79;100981.25;5072534;28;20025;-86
2021/06/22 05:23:39;;;;;;;11.00;7.95;;;;;;;14.77;76.72;100979.91;5071882;28;20116;-85
2021/06/22 05:26:05;;;;;;;13.23;8.35;;;;;;;14.72;77.21;100971.50;5073445;28;20058;-85
2021/06/22 05:28:30;;;;;;;11.48;7.95;;;;;;;14.62;76.39;100976.66;5074180;28;20471;-86
2021/06/22 05:30:56;;;;;;;13.40;7.97;;;;;;;14.76;76.08;100980.88;5073752;28;20520;-86
2021/06/22 05:33:22;;;;;;;12.98;8.23;;;;;;;14.83;75.82;100980.31;5073016;28;20039;-86
2021/06/22 05:35:48;;;;;;;13.23;7.70;;;;;;;14.82;76.17;100998.91;5073100;28;20493;-85
2021/06/22 05:38:13;;;;;;;15.70;8.13;;;;;;;14.82;74.27;100989.19;5073838;28;20040;-86
2021/06/22 05:40:39;;;;;;;10.60;7.75;;;;;;;14.90;73.86;100993.03;5073268;28;20036;-86
2021/06/22 05:43:05;;;;;;;13.30;8.20;;;;;;;14.74;74.05;100996.03;5073707;28;20044;-86
2021/06/22 05:45:30;;;;;;;9.95;6.93;;;;;;;14.87;74.52;101002.91;5072927;28;20470;-85
2021/06/22 05:47:56;;;;;;;12.85;7.80;;;;;;;14.89;75.47;101000.16;5067568;28;20032;-85
2021/06/22 05:50:21;;;;;;;11.93;7.80;;;;;;;15.01;75.07;101004.47;5066891;28;20016;-85
2021/06/22 05:52:49;;;;;;;10.57;7.80;;;;;;;15.03;74.28;101012.31;5067486;28;20115;-86
2021/06/22 05:55:17;;;;;;;15.82;7.38;;;;;;;15.08;73.47;101018.91;5059874;28;20668;-85
2021/06/22 05:57:54;;;;;;;12.48;7.82;;;;;;;15.16;73.33;101014.81;5068141;28;20497;-85
2021/06/22 06:00:24;;;;;;;11.63;7.25;;;;;;;14.92;73.52;101013.13;5069587;28;20081;-85
2021/06/22 06:02:50;;;;;;;10.23;7.15;;;;;;;14.90;74.85;101022.97;5072096;28;20104;-85
2021/06/22 06:05:17;;;;;;;11.23;7.18;;;;;;;15.15;73.88;101026.38;5073183;28;20027;-88
2021/06/22 06:07:44;;;;;;;15.32;7.80;;;;;;;15.22;72.40;101027.56;5070268;28;20253;-85
2021/06/22 06:10:10;;;;;;;10.18;6.93;;;;;;;15.37;73.54;101025.56;5072582;28;20081;-86
2021/06/22 06:12:36;;;;;;;17.40;8.68;;;;;;;15.36;73.81;101039.72;5073125;28;20033;-86
2021/06/22 06:15:01;;;;;;;11.57;7.78;;;;;;;15.58;74.11;101041.53;5070616;28;20049;-83
2021/06/22 06:17:26;;;;;;;14.52;8.27;;;;;;;15.62;74.08;101043.84;5065023;28;20028;-83
2021/06/22 06:19:52;;;;;;;16.15;8.25;;;;;;;15.71;72.84;101052.84;5068877;28;20504;-87
2021/06/22 06:22:18;;;;;;;10.30;6.88;;;;;;;15.80;71.89;101038.91;5071923;28;20066;-85
2021/06/22 06:24:44;;;;;;;9.05;7.32;;;;;;;15.88;70.74;101048.03;5072097;28;20028;-87
2021/06/22 06:27:16;;;;;;;13.90;7.43;;;;;;;16.01;72.19;101041.63;5072072;28;20029;-87
2021/06/22 06:30:05;;;;;;;13.00;6.85;;;;;;;16.15;70.34;101059.06;5072959;28;20055;-89
2021/06/22 06:32:27;;;;;;;11.88;6.72;;;;;;;16.09;69.78;101048.94;5063663;28;20060;-85
2021/06/22 06:34:52;;;;;;;15.25;7.40;;;;;;;16.07;70.20;101050.88;5071589;28;20063;-86
2021/06/22 06:37:18;;;;;;;10.65;6.78;;;;;;;16.05;67.14;101047.50;5072248;28;20540;-86
2021/06/22 06:39:43;;;;;;;12.85;7.25;;;;;;;16.38;68.71;101049.22;5072306;28;20012;-85
2021/06/22 06:42:09;;;;;;;10.43;6.15;;;;;;;16.58;67.57;101049.38;5071320;28;20546;-87
2021/06/22 06:44:35;;;;;;;15.48;7.70;;;;;;;16.76;68.60;101047.00;5070552;28;20054;-87
2021/06/22 06:47:01;;;;;;;8.55;6.35;;;;;;;16.97;66.44;101049.72;5070220;28;20025;-87
2021/06/22 06:49:26;;;;;;;9.63;6.22;;;;;;;17.12;66.79;101044.88;5071998;28;20039;-87
2021/06/22 06:51:52;;;;;;;13.50;6.10;;;;;;;17.16;64.08;101048.97;5069946;28;20486;-88
2021/06/22 06:54:17;;;;;;;11.57;5.28;;;;;;;17.34;62.29;101042.09;5071439;28;20107;-88
2021/06/22 06:56:42;;;;;;;7.38;5.18;;;;;;;17.78;62.26;101052.44;5070379;28;20024;-89
2021/06/22 06:59:08;;;;;;;14.15;5.45;;;;;;;17.96;62.01;101048.19;5070506;28;20044;-88
2021/06/22 07:01:33;;;;;;;9.60;5.05;;;;;;;17.87;60.15;101043.72;5069365;28;20085;-88
2021/06/22 07:03:59;;;;;;;7.78;4.53;;;;;;;18.23;61.42;101044.88;5071169;28;20425;-88
2021/06/22 07:06:25;;;;;;;10.30;4.95;;;;;;;18.27;59.57;101044.63;5070606;28;20048;-88
2021/06/22 07:08:50;;;;;;;5.03;4.30;;;;;;;18.91;59.63;101046.69;5070090;28;20032;-88
2021/06/22 07:11:18;;;;;;;8.75;4.53;;;;;;;19.27;56.75;101054.88;5070986;28;20017;-88
2021/06/22 07:13:44;;;;;;;6.65;3.85;;;;;;;19.71;55.80;101057.81;5070863;28;20036;-88
2021/06/22 07:16:09;;;;;;;8.02;4.57;;;;;;;20.15;54.58;101057.97;5069422;28;20402;-88
2021/06/22 07:18:35;;;;;;;5.63;3.47;;;;;;;20.38;52.40;101065.53;5070506;28;20124;-88
2021/06/22 07:21:00;;;;;;;4.82;3.20;;;;;;;20.68;50.06;101060.84;5070991;28;20020;-88
2021/06/22 07:23:27;;;;;;;9.30;3.90;;;;;;;21.16;50.79;101059.50;5070799;28;20509;-88
2021/06/22 07:25:53;;;;;;;6.20;3.50;;;;;;;22.23;50.16;101052.75;5069632;28;20483;-88
2021/06/22 07:28:18;;;;;;;6.88;2.80;;;;;;;22.92;46.94;101050.63;5071179;28;20029;-88
2021/06/22 07:30:44;;;;;;;8.10;2.72;;;;;;;23.61;43.95;101058.16;5070284;28;20385;-88
2021/06/22 07:33:10;;;;;;;4.65;2.55;;;;;;;24.25;42.02;101060.72;5070887;28;20055;-88
2021/06/22 07:35:35;;;;;;;3.88;2.55;;;;;;;25.02;40.70;101061.59;5070664;28;20036;-87
2021/06/22 07:38:01;;;;;;;8.35;2.20;;;;;;;25.64;39.96;101069.34;5070527;28;20035;-86
2021/06/22 07:40:27;;;;;;;4.15;2.03;;;;;;;26.31;37.08;101062.88;5071646;28;20024;-86
2021/06/22 07:42:53;;;;;;;4.00;1.80;;;;;;;26.99;36.56;101061.63;5070961;28;20039;-86
2021/06/22 07:45:20;;;;;;;5.20;1.67;;;;;;;27.12;33.56;101069.81;5071218;28;20032;-87
2021/06/22 07:47:46;;;;;;;6.05;2.05;;;;;;;27.57;33.18;101061.34;5072278;28;20025;-87
2021/06/22 07:50:12;;;;;;;7.32;1.92;;;;;;;26.77;36.10;101058.97;5071952;28;20028;-88
2021/06/22 07:52:38;;;;;;;5.95;1.70;;;;;;;27.36;32.61;101062.31;5071933;28;20112;-88
2021/06/22 07:55:05;;;;;;;2.72;1.17;;;;;;;27.64;32.67;101062.22;5071477;28;20116;-88
2021/06/22 07:57:30;;;;;;;4.47;1.60;;;;;;;26.85;33.26;101053.44;5071699;28;20036;-87
2021/06/22 07:59:56;;;;;;;4.40;1.45;;;;;;;26.96;33.53;101065.53;5072101;28;20478;-88
2021/06/22 08:02:21;;;;;;;6.85;1.33;;;;;;;26.23;34.50;101070.25;5072041;28;20021;-88
2021/06/22 08:04:46;;;;;;;3.40;1.45;;;;;;;25.73;34.45;101064.69;5072083;28;20474;-87
2021/06/22 08:07:12;;;;;;;3.78;1.42;;;;;;;26.60;33.24;101071.03;5072179;28;20020;-87
2021/06/22 08:09:37;;;;;;;3.60;1.20;;;;;;;27.41;33.54;101068.78;5071988;28;20024;-88
2021/06/22 08:12:03;;;;;;;4.18;1.38;;;;;;;27.53;31.78;101071.72;5071338;28;20033;-88
2021/06/22 08:14:28;;;;;;;4.60;1.10;;;;;;;28.33;33.48;101063.06;5071488;28;20025;-88
2021/06/22 08:16:54;;;;;;;4.50;1.20;;;;;;;29.20;30.70;101072.88;5071653;28;20443;-88
2021/06/22 08:19:19;;;;;;;3.00;1.10;;;;;;;27.36;32.95;101070.38;5071754;28;20021;-88
2021/06/22 08:21:44;;;;;;;7.80;1.40;;;;;;;27.04;31.83;101062.69;5071755;28;20115;-88
2021/06/22 08:24:10;;;;;;;4.50;1.00;;;;;;;26.29;33.81;101066.81;5071879;28;20037;-88
2021/06/22 08:26:35;;;;;;;3.13;1.30;;;;;;;26.21;34.18;101070.44;5073264;28;20381;-87
2021/06/22 08:29:01;;;;;;;1.80;0.80;;;;;;;26.75;33.40;101077.19;5075442;28;20386;-88
2021/06/22 08:31:27;;;;;;;6.60;1.02;;;;;;;26.89;30.25;101075.44;5075355;28;20082;-88
2021/06/22 08:33:52;;;;;;;5.97;1.00;;;;;;;26.02;30.82;101079.97;5075398;28;20412;-87
2021/06/22 08:36:18;;;;;;;6.63;0.82;;;;;;;25.63;31.51;101069.53;5075523;28;20021;-87
2021/06/22 08:38:43;;;;;;;2.35;1.02;;;;;;;26.41;31.65;101065.25;5075229;28;20444;-87
2021/06/22 08:41:09;;;;;;;5.05;1.20;;;;;;;27.11;31.17;101057.34;5075465;28;20020;-87
2021/06/22 08:43:35;;;;;;;9.63;1.50;;;;;;;27.86;32.56;101057.53;5075455;28;20056;-88
2021/06/22 08:46:05;;;;;;;5.35;1.20;;;;;;;28.34;30.61;101067.44;5075226;28;20082;-88
2021/06/22 08:48:31;;;;;;;21.60;2.53;;;;;;;27.76;30.09;101057.09;5075062;28;20067;-88
2021/06/22 08:50:57;;;;;;;4.18;1.27;;;;;;;26.85;29.84;101058.00;5075102;28;20435;-88
2021/06/22 08:53:23;;;;;;;6.22;1.40;;;;;;;27.68;29.78;101068.88;5074670;28;20046;-87
2021/06/22 08:55:49;;;;;;;3.47;1.30;;;;;;;28.20;29.64;101055.78;5074731;28;20104;-88
2021/06/22 08:58:17;;;;;;;4.20;1.50;;;;;;;29.12;29.27;101048.75;5075088;28;20476;-87
2021/06/22 09:00:45;;;;;;;3.03;1.13;;;;;;;29.35;26.84;101055.59;5074886;28;20478;-88
2021/06/22 09:03:12;;;;;;;2.60;1.02;;;;;;;29.56;26.58;101060.72;5074768;28;20028;-88
2021/06/22 09:05:42;;;;;;;5.95;1.23;;;;;;;29.08;26.65;101069.94;5074630;28;20463;-88
2021/06/22 09:08:21;;;;;;;3.33;1.23;;;;;;;29.87;27.34;101075.38;5074162;28;20063;-88
2021/06/22 09:10:47;;;;;;;4.80;1.23;;;;;;;29.57;26.23;101072.38;5073845;28;20049;-88
2021/06/22 09:13:18;;;;;;;2.72;1.08;;;;;;;28.88;26.48;101078.09;5074497;28;20024;-88
2021/06/22 09:15:46;;;;;;;7.07;1.38;;;;;;;28.97;27.70;101077.88;5074673;28;20433;-88
2021/06/22 09:18:47;;;;;;;2.28;1.30;;;;;;;29.62;28.92;101072.53;5074552;28;20025;-88
2021/06/22 09:21:19;;;;;;;4.65;1.20;;;;;;;30.19;28.36;101072.69;5031933;28;20100;-88
2021/06/22 09:23:45;;;;;;;2.55;1.05;;;;;;;31.04;25.77;101077.69;5067319;28;20082;-88
2021/06/22 09:26:13;;;;;;;2.00;1.02;;;;;;;32.08;24.26;101079.66;5074482;28;20031;-88
2021/06/22 09:28:39;;;;;;;3.75;1.00;;;;;;;31.54;24.02;101088.47;5074239;28;20095;-88
2021/06/22 09:31:07;;;;;;;4.35;1.75;;;;;;;30.80;24.56;101091.03;5073958;28;20017;-88
2021/06/22 09:33:48;;;;;;;4.22;1.58;;;;;;;29.88;26.10;101093.28;5074089;28;20036;-88
2021/06/22 09:36:24;;;;;;;9.27;1.60;;;;;;;30.82;26.15;101086.22;5054385;28;20021;-88
2021/06/22 09:38:57;;;;;;;3.08;1.83;;;;;;;30.84;25.25;101086.81;5053658;28;20029;-88
2021/06/22 09:41:25;;;;;;;9.75;1.58;;;;;;;30.66;24.39;101075.09;5053890;28;20053;-89
2021/06/22 09:44:12;;;;;;;4.20;1.80;;;;;;;30.74;26.81;101078.34;5054071;28;20020;-88
2021/06/22 09:46:39;;;;;;;3.53;1.65;;;;;;;30.38;23.93;101089.91;5053858;28;20025;-89
2021/06/22 09:49:10;;;;;;;4.53;2.50;;;;;;;31.15;24.87;101087.81;5059556;28;20031;-88
2021/06/22 09:51:50;;;;;;;5.35;1.35;;;;;;;31.49;23.71;101080.16;5073349;28;20027;-88
2021/06/22 09:54:42;;;;;;;3.72;1.83;;;;;;;31.32;23.39;101085.34;5073612;28;20359;-88
2021/06/22 09:57:14;;;;;;;3.88;1.40;;;;;;;31.55;23.28;101075.72;5067969;28;20099;-88
2021/06/22 10:00:08;;;;;;;3.78;1.70;;;;;;;32.11;23.19;101082.75;5073933;28;20024;-88
2021/06/22 10:02:52;;;;;;;6.50;1.77;;;;;;;31.78;24.38;101084.00;5073489;28;20020;-88
2021/06/22 10:05:18;;;;;;;4.70;1.60;;;;;;;31.55;25.33;101083.88;5073127;28;20087;-88
2021/06/22 10:07:44;;;;;;;2.53;1.50;;;;;;;30.59;25.54;101088.69;5073553;28;20111;-88
2021/06/22 10:10:10;;;;;;;3.70;1.70;;;;;;;28.93;26.44;101090.13;5073417;28;20475;-88
2021/06/22 10:12:44;;;;;;;4.55;2.05;;;;;;;27.53;27.49;101093.31;5073258;28;20024;-88
2021/06/22 10:15:10;;;;;;;5.07;1.80;;;;;;;27.00;27.59;101098.34;5072126;28;20028;-88
2021/06/22 10:17:35;;;;;;;3.40;1.60;;;;;;;27.01;27.99;101090.03;5073640;28;20359;-88
2021/06/22 10:20:05;;;;;;;4.03;1.52;;;;;;;28.51;25.39;101086.81;5073340;28;20029;-88
2021/06/22 10:22:32;;;;;;;4.70;1.80;;;;;;;29.64;24.44;101084.81;5071594;28;20054;-88
2021/06/22 10:25:00;;;;;;;8.45;1.48;;;;;;;29.20;24.58;101083.69;5073030;28;20066;-88
2021/06/22 10:27:27;;;;;;;5.90;1.80;;;;;;;29.50;24.36;101085.06;5073155;28;20099;-88
2021/06/22 10:29:56;;;;;;;3.75;1.50;;;;;;;29.67;25.30;101073.56;5072970;28;20127;-88
2021/06/22 10:32:25;;;;;;;5.78;1.90;;;;;;;30.33;25.48;101076.19;5072847;28;20082;-88
2021/06/22 10:34:53;;;;;;;4.78;1.80;;;;;;;29.62;25.26;101075.25;5072668;28;20276;-88
2021/06/22 10:37:32;;;;;;;4.38;1.90;;;;;;;28.96;26.62;101071.63;5072756;28;20028;-88
2021/06/22 10:40:03;;;;;;;2.55;1.58;;;;;;;27.03;28.74;101070.97;5072585;28;20029;-88
2021/06/22 10:42:43;;;;;;;3.00;1.40;;;;;;;27.63;27.44;101087.56;5072903;28;20028;-88
2021/06/22 10:45:09;;;;;;;5.00;1.70;;;;;;;27.79;28.56;101076.41;5072537;28;20115;-88
2021/06/22 10:47:39;;;;;;;2.95;1.77;;;;;;;28.12;27.73;101086.53;5072576;28;20489;-88
2021/06/22 10:50:08;;;;;;;4.40;1.83;;;;;;;28.44;28.27;101090.31;5071772;28;20036;-88
2021/06/22 10:52:46;;;;;;;5.68;1.50;;;;;;;29.41;27.02;101079.06;5072587;28;20447;-88
2021/06/22 10:55:21;;;;;;;2.13;1.20;;;;;;;29.87;25.34;101080.78;5071226;28;20024;-88
2021/06/22 11:00:31;;;;;;;3.35;1.67;;;;;;;30.37;24.76;101077.41;5072876;28;20040;-88
2021/06/22 11:03:07;;;;;;;4.30;1.90;;;;;;;30.94;24.36;101082.81;5072247;28;20029;-88
2021/06/22 11:05:37;;;;;;;4.45;1.60;;;;;;;30.47;23.22;101085.91;5071941;28;20032;-88
2021/06/22 11:08:09;;;;;;;3.08;1.38;;;;;;;31.57;22.93;101082.56;5072050;28;20040;-88
2021/06/22 11:10:42;;;;;;;4.43;1.27;;;;;;;32.16;22.90;101079.34;5072627;28;20375;-88
2021/06/22 11:13:08;;;;;;;4.75;1.10;;;;;;;31.69;21.36;101074.50;5072774;28;20438;-88
2021/06/22 11:15:45;;;;;;;2.97;1.45;;;;;;;31.99;21.39;101079.97;5071662;28;20077;-89
2021/06/22 11:18:15;;;;;;;2.80;1.33;;;;;;;30.84;22.86;101086.00;5072071;28;20025;-88
2021/06/22 11:20:42;;;;;;;2.22;1.02;;;;;;;30.13;24.11;101089.81;5071711;28;20517;-88
2021/06/22 11:23:10;;;;;;;4.70;1.23;;;;;;;30.68;22.93;101081.13;5071385;28;20040;-88
2021/06/22 11:25:49;;;;;;;2.72;1.55;;;;;;;31.11;22.75;101075.75;5071761;28;20052;-88